Data for 01/01/2010

Time Sea-Level Adjusted Pressure Absolute Pressure Temperature Relative Humidity Dew Point   
(mb) (inHg) (mb) (inHg) (C) (F) (%) (C) (F)
00:05 1018 30.06 847 25.01 -3.5 25.7 80 -6.5 20.3
00:10 1018 30.06 847 25.01 -3.5 25.8 79 -6.6 20.1
00:15 1018 30.06 847 25.01 -3.4 25.8 79 -6.5 20.3
00:20 1018 30.06 847 25.01 -3.4 25.9 78 -6.7 20
00:25 1018 30.06 848 25.04 -3.4 25.9 79 -6.5 20.3
00:30 1018 30.06 847 25.01 -3.4 25.8 79 -6.6 20.2
00:35 1018 30.06 847 25.01 -3.4 25.9 79 -6.6 20.1
00:40 1018 30.06 848 25.04 -3.3 26.1 79 -6.5 20.3
00:45 1018 30.06 848 25.04 -3.3 26 79 -6.5 20.3
00:50 1018 30.06 848 25.04 -3.4 25.9 78 -6.6 20.1
00:55 1018 30.06 848 25.04 -3.4 25.8 78 -6.7 20
01:00 1018 30.06 848 25.04 -3.4 25.8 78 -6.7 19.9
01:05 1018 30.06 848 25.04 -3.4 25.9 77 -6.8 19.7
01:10 1018 30.06 848 25.04 -3.3 26 76 -7 19.4
01:15 1019 30.09 848 25.04 -3.3 26.1 77 -6.8 19.8
01:20 1018 30.06 848 25.04 -3.3 26.1 77 -6.8 19.7
01:25 1018 30.06 848 25.04 -3.2 26.3 76 -6.8 19.7
01:30 1018 30.06 848 25.04 -3.1 26.4 76 -6.7 20
01:35 1019 30.09 848 25.04 -3.1 26.4 74 -7 19.3
01:40 1019 30.09 848 25.04 -3.1 26.4 77 -6.6 20.1
01:45 1018 30.06 848 25.04 -3.2 26.2 77 -6.6 20
01:50 1018 30.06 848 25.04 -3.4 26 79 -6.4 20.4
01:55 1018 30.06 848 25.04 -3.5 25.8 79 -6.5 20.2
02:00 1018 30.06 848 25.04 -3.4 25.8 79 -6.5 20.3
02:05 1018 30.06 847 25.01 -3.4 25.9 79 -6.5 20.3
02:10 1018 30.06 847 25.01 -3.4 25.8 79 -6.5 20.3
02:15 1018 30.06 848 25.04 -3.5 25.8 80 -6.5 20.4
02:20 1018 30.06 848 25.04 -3.5 25.7 79 -6.6 20.2
02:25 1018 30.06 848 25.04 -3.4 25.8 79 -6.6 20.1
02:30 1018 30.06 848 25.04 -3.3 26 78 -6.7 19.9
02:35 1018 30.06 848 25.04 -3.2 26.2 77 -6.8 19.8
02:40 1018 30.06 847 25.01 -3.2 26.3 76 -6.9 19.6
02:45 1018 30.06 847 25.01 -3.2 26.3 75 -6.9 19.6
02:50 1018 30.06 847 25.01 -3.1 26.4 76 -6.8 19.8
02:55 1018 30.06 847 25.01 -3.1 26.4 75 -6.8 19.7
03:00 1018 30.06 848 25.04 -3.1 26.4 75 -6.8 19.7
03:05 1018 30.06 848 25.04 -3 26.6 74 -7 19.5
03:10 1018 30.06 848 25.04 -2.9 26.8 73 -7 19.4
03:15 1018 30.06 847 25.01 -2.8 27 72 -7.1 19.3
03:20 1018 30.06 847 25.01 -2.7 27.1 73 -7 19.4
03:25 1018 30.06 847 25.01 -2.7 27.1 72 -7 19.4
03:30 1018 30.06 847 25.01 -2.7 27.1 72 -7 19.3
03:35 1018 30.06 847 25.01 -2.8 27 74 -6.9 19.6
03:40 1018 30.06 847 25.01 -2.8 26.9 73 -7 19.4
03:45 1018 30.06 847 25.01 -2.8 27 74 -6.9 19.6
03:50 1018 30.06 847 25.01 -2.8 27 74 -6.8 19.7
03:55 1018 30.06 847 25.01 -2.8 27 73 -7 19.4
04:00 1018 30.06 847 25.01 -2.6 27.3 72 -7 19.4
04:05 1018 30.06 847 25.01 -2.5 27.6 71 -7 19.4
04:10 1018 30.06 848 25.04 -2.4 27.6 71 -7.1 19.3
04:15 1018 30.06 848 25.04 -2.4 27.6 72 -6.9 19.6
04:20 1019 30.09 848 25.04 -2.4 27.8 71 -7 19.4
04:25 1018 30.06 848 25.04 -2.2 28 71 -6.9 19.6
04:30 1018 30.06 848 25.04 -2.2 28 70 -7 19.4
04:35 1018 30.06 848 25.04 -2.1 28.2 70 -6.8 19.8
04:40 1018 30.06 848 25.04 -2.1 28.2 70 -6.8 19.7
04:45 1018 30.06 848 25.04 -2.1 28.2 71 -6.7 20
04:50 1018 30.06 848 25.04 -2.1 28.2 71 -6.7 19.9
04:55 1018 30.06 848 25.04 -2.1 28.3 70 -6.8 19.7
05:00 1018 30.06 848 25.04 -2 28.4 70 -6.7 19.9
05:05 1018 30.06 848 25.04 -1.9 28.5 70 -6.8 19.8
05:10 1018 30.06 848 25.04 -1.8 28.7 69 -6.8 19.7
05:15 1018 30.06 847 25.01 -1.8 28.7 69 -6.7 19.9
05:20 1018 30.06 847 25.01 -1.8 28.8 69 -6.7 19.9
05:25 1018 30.06 847 25.01 -1.8 28.8 69 -6.8 19.8
05:30 1018 30.06 847 25.01 -1.7 29 69 -6.6 20.1
05:35 1018 30.06 848 25.04 -1.7 28.9 70 -6.5 20.3
05:40 1018 30.06 848 25.04 -1.7 29 69 -6.7 20
05:45 1018 30.06 848 25.04 -1.6 29 70 -6.5 20.3
05:50 1018 30.06 848 25.04 -1.7 29 70 -6.5 20.2
05:55 1018 30.06 848 25.04 -1.6 29.1 69 -6.6 20
06:00 1018 30.06 848 25.04 -1.5 29.3 68 -6.7 19.9
06:05 1018 30.06 848 25.04 -1.4 29.4 67 -6.7 20
06:10 1018 30.06 848 25.04 -1.4 29.4 67 -6.7 19.9
06:15 1018 30.06 848 25.04 -1.5 29.4 69 -6.4 20.4
06:20 1018 30.06 848 25.04 -1.6 29 71 -6.3 20.7
06:25 1018 30.06 848 25.04 -1.6 29.1 70 -6.4 20.5
06:30 1019 30.09 848 25.04 -1.4 29.4 67 -6.7 19.9
06:35 1019 30.09 848 25.04 -1.1 29.9 67 -6.6 20.1
06:40 1019 30.09 848 25.04 -1.2 29.9 67 -6.5 20.3
06:45 1019 30.09 848 25.04 -1.2 29.9 66 -6.7 20
06:50 1018 30.06 848 25.04 -1.1 30 67 -6.5 20.2
06:55 1018 30.06 848 25.04 -1.1 30.1 66 -6.7 19.9
07:00 1018 30.06 848 25.04 -1 30.2 66 -6.6 20
07:05 1018 30.06 848 25.04 -0.9 30.4 65 -6.6 20.1
07:10 1018 30.06 848 25.04 -0.9 30.4 65 -6.6 20.1
07:15 1018 30.06 848 25.04 -0.8 30.6 65 -6.6 20.2
07:20 1018 30.06 848 25.04 -0.7 30.8 65 -6.4 20.4
07:25 1018 30.06 848 25.04 -0.8 30.6 66 -6.4 20.4
07:30 1018 30.06 848 25.04 -0.8 30.5 66 -6.4 20.6
07:35 1018 30.06 848 25.04 -0.8 30.5 66 -6.5 20.4
07:40 1018 30.06 848 25.04 -0.7 30.8 65 -6.5 20.3
07:45 1018 30.06 848 25.04 -0.5 31.1 64 -6.5 20.3
07:50 1018 30.06 848 25.04 -0.5 31.2 63 -6.7 20
07:55 1018 30.06 848 25.04 -0.3 31.4 64 -6.4 20.4
08:00 1018 30.06 848 25.04 -0.3 31.4 64 -6.4 20.5
08:05 1018 30.06 848 25.04 -0.3 31.5 63 -6.5 20.2
08:10 1019 30.09 848 25.04 -0.2 31.7 62 -6.5 20.3
08:15 1019 30.09 848 25.04 0 32 61 -6.5 20.2
08:20 1019 30.09 848 25.04 0.1 32.3 61 -6.5 20.3
08:25 1019 30.09 848 25.04 0.2 32.3 63 -6.2 20.9
08:30 1019 30.09 848 25.04 0.1 32.2 62 -6.4 20.6
08:35 1019 30.09 848 25.04 0.1 32.2 62 -6.3 20.7
08:40 1019 30.09 848 25.04 0.1 32.2 62 -6.3 20.6
08:45 1019 30.09 848 25.04 0.1 32.2 62 -6.3 20.7
08:50 1019 30.09 848 25.04 0.1 32.1 62 -6.5 20.4
08:55 1019 30.09 848 25.04 0.2 32.4 61 -6.4 20.4
09:00 1019 30.09 848 25.04 0.3 32.5 61 -6.3 20.6
09:05 1019 30.09 848 25.04 0.4 32.6 61 -6.4 20.5
09:10 1019 30.09 848 25.04 0.4 32.7 62 -6.2 20.9
09:15 1019 30.09 848 25.04 0.4 32.7 62 -6.1 21
09:20 1019 30.09 848 25.04 0.4 32.7 62 -6.1 21.1
09:25 1019 30.09 848 25.04 0.3 32.6 62 -6 21.2
09:30 1019 30.09 848 25.04 0.2 32.4 62 -6.1 21
09:35 1019 30.09 848 25.04 0.3 32.5 63 -6 21.3
09:40 1019 30.09 848 25.04 0.3 32.5 63 -5.9 21.4
09:45 1019 30.09 848 25.04 0.3 32.5 63 -5.9 21.4
09:50 1019 30.09 848 25.04 0.4 32.7 63 -5.9 21.4
09:55 1019 30.09 848 25.04 0.5 32.9 62 -6 21.2
10:00 1019 30.09 848 25.04 0.6 33.2 61 -6 21.2
10:05 1019 30.09 848 25.04 0.7 33.3 62 -5.8 21.6
10:10 1019 30.09 848 25.04 0.9 33.6 60 -6 21.2
10:15 1019 30.09 848 25.04 1 33.9 59 -6.1 21.1
10:20 1019 30.09 848 25.04 1.1 34 60 -5.9 21.4
10:25 1019 30.09 848 25.04 1.3 34.3 59 -6 21.2
10:30 1019 30.09 848 25.04 1.4 34.5 57 -6.2 20.9
10:35 1019 30.09 848 25.04 1.4 34.6 58 -6 21.2
10:40 1019 30.09 848 25.04 1.6 34.9 56 -6.2 20.8
10:45 1019 30.09 848 25.04 1.7 35.1 57 -6 21.3
10:50 1019 30.09 848 25.04 1.8 35.2 57 -5.9 21.4
10:55 1019 30.09 848 25.04 1.6 34.9 58 -5.7 21.7
11:00 1019 30.09 848 25.04 1.5 34.7 59 -5.7 21.7
11:05 1019 30.09 848 25.04 1.5 34.8 59 -5.6 21.8
11:10 1019 30.09 848 25.04 1.6 35 58 -5.8 21.6
11:15 1019 30.09 848 25.04 1.8 35.2 58 -5.6 22
11:20 1019 30.09 848 25.04 2 35.5 58 -5.5 22.1
11:25 1019 30.09 848 25.04 2.2 35.9 56 -5.7 21.8
11:30 1019 30.09 848 25.04 2.1 35.8 57 -5.5 22
11:35 1018 30.06 848 25.04 2.2 35.9 56 -5.6 21.9
11:40 1018 30.06 848 25.04 2.3 36.1 57 -5.5 22.2
11:45 1018 30.06 847 25.01 2.3 36.2 56 -5.6 22
11:50 1018 30.06 847 25.01 2.4 36.3 56 -5.5 22.1
11:55 1018 30.06 847 25.01 2.3 36.1 56 -5.5 22.1
12:00 1018 30.06 847 25.01 2.6 36.6 54 -5.8 21.6
12:05 1018 30.06 847 25.01 2.8 37 53 -5.9 21.4
12:10 1018 30.06 847 25.01 2.9 37.2 53 -5.8 21.6
12:15 1018 30.06 847 25.01 3.1 37.6 51 -6.1 21.1
12:20 1018 30.06 847 25.01 3.1 37.6 52 -5.9 21.5
12:25 1018 30.06 847 25.01 3.2 37.8 51 -5.9 21.4
12:30 1017 30.03 847 25.01 3.2 37.8 51 -5.9 21.3
12:35 1017 30.03 847 25.01 3.2 37.7 51 -5.9 21.3
12:40 1017 30.03 846 24.98 3.3 38 50 -6 21.2
12:45 1017 30.03 846 24.98 3.3 38 51 -5.9 21.3
12:50 1017 30.03 846 24.98 3.6 38.5 51 -5.6 21.9
12:55 1017 30.03 846 24.98 3.8 38.8 51 -5.3 22.4
13:00 1017 30.03 846 24.98 3 37.5 54 -5.5 22.2
13:05 1017 30.03 846 24.98 3.2 37.7 51 -5.9 21.4
13:10 1017 30.03 846 24.98 3.5 38.3 54 -5 23
13:15 1017 30.03 846 24.98 3.6 38.4 57 -4.2 24.4
13:20 1017 30.03 846 24.98 3.2 37.8 60 -3.9 25
13:25 1016 30 846 24.98 2.8 37 60 -4.3 24.3
13:30 1016 30 846 24.98 2.7 36.8 59 -4.5 23.9
13:35 1016 30 846 24.98 2.4 36.3 61 -4.5 24
13:40 1016 30 846 24.98 2.3 36.1 64 -3.9 25
13:45 1016 30 846 24.98 2.2 36 61 -4.5 23.9
13:50 1016 30 846 24.98 2.1 35.8 60 -4.8 23.4
13:55 1017 30.03 846 24.98 2.4 36.4 58 -4.9 23.2
14:00 1017 30.03 846 24.98 2.7 36.8 61 -4.2 24.5
14:05 1017 30.03 846 24.98 2 35.7 62 -4.5 23.9
14:10 1017 30.03 846 24.98 1.4 34.6 63 -4.9 23.2
14:15 1017 30.03 846 24.98 1.3 34.3 63 -5 23
14:20 1016 30 846 24.98 1.4 34.5 61 -5.2 22.6
14:25 1016 30 846 24.98 1.4 34.5 62 -5.2 22.7
14:30 1016 30 846 24.98 1.6 34.8 61 -5.2 22.6
14:35 1016 30 846 24.98 1.7 35.1 61 -4.9 23.2
14:40 1017 30.03 846 24.98 1.2 34.1 64 -4.8 23.3
14:45 1016 30 846 24.98 0.5 33 68 -4.7 23.5
14:50 1016 30 846 24.98 0.2 32.4 68 -5 22.9
14:55 1017 30.03 846 24.98 0.4 32.7 68 -4.9 23.2
15:00 1017 30.03 846 24.98 0.9 33.6 66 -4.8 23.4
15:05 1017 30.03 846 24.98 1.1 34 65 -4.7 23.5
15:10 1017 30.03 846 24.98 1.1 34 66 -4.6 23.7
15:15 1017 30.03 846 24.98 1.2 34.2 65 -4.7 23.6
15:20 1017 30.03 846 24.98 1.3 34.3 64 -4.9 23.2
15:25 1017 30.03 846 24.98 1.2 34.1 65 -4.7 23.5
15:30 1017 30.03 846 24.98 1.1 34 65 -4.7 23.6
15:35 1017 30.03 846 24.98 1.3 34.3 64 -4.8 23.3
15:40 1017 30.03 846 24.98 1.3 34.4 65 -4.6 23.8
15:45 1016 30 846 24.98 0.8 33.5 68 -4.5 24
15:50 1016 30 846 24.98 0.5 32.9 68 -4.7 23.5
15:55 1016 30 846 24.98 0.4 32.8 69 -4.7 23.6
16:00 1016 30 845 24.95 0.4 32.6 69 -4.7 23.6
16:05 1016 30 845 24.95 0.3 32.6 69 -4.7 23.5
16:10 1016 30 845 24.95 0.3 32.6 69 -4.8 23.4
16:15 1016 30 845 24.95 0.3 32.5 68 -5 23
16:20 1016 30 845 24.95 0.4 32.7 67 -5.1 22.8
16:25 1016 30 845 24.95 0.6 33.1 66 -5.1 22.8
16:30 1016 30 845 24.95 0.6 33.1 66 -5.1 22.8
16:35 1016 30 845 24.95 0.6 33 65 -5.3 22.5
16:40 1016 30 845 24.95 0.6 33.1 65 -5.2 22.7
16:45 1016 30 845 24.95 0.6 33.1 66 -5.1 22.8
16:50 1016 30 845 24.95 0.5 33 65 -5.3 22.5
16:55 1015 29.97 845 24.95 0.8 33.4 63 -5.5 22.1
17:00 1015 29.97 845 24.95 0.9 33.6 63 -5.4 22.2
17:05 1015 29.97 844 24.92 1 33.9 61 -5.7 21.8
17:10 1015 29.97 844 24.92 1.1 33.9 62 -5.5 22.1
17:15 1015 29.97 844 24.92 0.9 33.7 61 -5.8 21.6
17:20 1015 29.97 844 24.92 1.1 34 60 -5.7 21.7
17:25 1015 29.97 844 24.92 1.3 34.3 60 -5.7 21.7
17:30 1015 29.97 844 24.92 1.4 34.4 60 -5.7 21.8
17:35 1015 29.97 844 24.92 1.1 34 60 -5.7 21.7
17:40 1015 29.97 844 24.92 1 33.9 60 -5.8 21.5
17:45 1015 29.97 844 24.92 1.1 34 60 -5.9 21.5
17:50 1015 29.97 844 24.92 1 33.8 60 -5.9 21.3
17:55 1015 29.97 844 24.92 0.9 33.6 60 -6 21.2
18:00 1015 29.97 844 24.92 0.9 33.6 60 -6.1 21.1
18:05 1015 29.97 844 24.92 0.8 33.5 60 -6.1 21
18:10 1015 29.97 844 24.92 0.9 33.6 59 -6.3 20.7
18:15 1015 29.97 844 24.92 1 33.9 59 -6.2 20.8
18:20 1015 29.97 844 24.92 1.2 34.1 58 -6.2 20.8
18:25 1015 29.97 844 24.92 1.3 34.4 57 -6.3 20.7
18:30 1015 29.97 844 24.92 1.2 34.2 59 -6 21.2
18:35 1015 29.97 844 24.92 1.2 34.1 58 -6.2 20.9
18:40 1015 29.97 844 24.92 1.3 34.3 58 -6.2 20.8
18:45 1015 29.97 844 24.92 1.4 34.6 57 -6.2 20.8
18:50 1015 29.97 844 24.92 1.6 34.8 57 -6.1 21
18:55 1015 29.97 845 24.95 1.7 35 56 -6.2 20.8
19:00 1015 29.97 845 24.95 1.7 35.1 56 -6.2 20.8
19:05 1015 29.97 845 24.95 1.7 35.1 56 -6.1 21
19:10 1015 29.97 845 24.95 1.7 35.1 57 -6 21.3
19:15 1016 30 845 24.95 1.5 34.7 59 -5.6 21.9
19:20 1016 30 845 24.95 1.3 34.3 60 -5.7 21.7
19:25 1016 30 845 24.95 1.2 34.1 61 -5.5 22
19:30 1016 30 845 24.95 1 33.8 62 -5.5 22.1
19:35 1016 30 845 24.95 0.8 33.4 64 -5.2 22.7
19:40 1015 29.97 845 24.95 0.6 33.2 64 -5.3 22.5
19:45 1015 29.97 845 24.95 0.6 33 66 -5 23
19:50 1015 29.97 845 24.95 0.1 32.2 70 -4.8 23.4
19:55 1015 29.97 845 24.95 -0.1 31.8 67 -5.5 22.1
20:00 1015 29.97 845 24.95 -0 32 67 -5.4 22.3
20:05 1015 29.97 845 24.95 -0.1 31.9 67 -5.5 22.2
20:10 1015 29.97 845 24.95 -0 32 68 -5.3 22.4
20:15 1015 29.97 844 24.92 0 32 65 -5.7 21.7
20:20 1015 29.97 844 24.92 0.5 32.9 62 -5.9 21.4
20:25 1015 29.97 844 24.92 0.9 33.6 61 -5.7 21.7
20:30 1015 29.97 844 24.92 1 33.8 61 -5.8 21.6
20:35 1015 29.97 844 24.92 1.3 34.4 60 -5.7 21.8
20:40 1015 29.97 844 24.92 1.5 34.6 59 -5.6 22
20:45 1015 29.97 844 24.92 1.7 35 59 -5.4 22.2
20:50 1015 29.97 844 24.92 1.7 35 59 -5.5 22.1
20:55 1015 29.97 844 24.92 1.7 35.1 59 -5.5 22.2
21:00 1015 29.97 844 24.92 1.7 35.1 59 -5.5 22
21:05 1015 29.97 844 24.92 1.9 35.4 58 -5.5 22
21:10 1015 29.97 844 24.92 1.9 35.5 58 -5.5 22.2
21:15 1015 29.97 844 24.92 2 35.6 58 -5.5 22.2
21:20 1015 29.97 844 24.92 2.1 35.8 57 -5.6 22
21:25 1015 29.97 844 24.92 2.1 35.8 57 -5.5 22.1
21:30 1015 29.97 844 24.92 2.1 35.8 57 -5.7 21.8
21:35 1015 29.97 844 24.92 2.1 35.8 57 -5.5 22.1
21:40 1015 29.97 844 24.92 1.9 35.5 58 -5.5 22.1
21:45 1015 29.97 844 24.92 1.9 35.4 57 -5.6 21.9
21:50 1015 29.97 844 24.92 1.9 35.5 57 -5.7 21.8
21:55 1015 29.97 844 24.92 2 35.5 57 -5.7 21.8
22:00 1015 29.97 844 24.92 1.9 35.5 58 -5.5 22.2
22:05 1015 29.97 844 24.92 1.8 35.3 58 -5.5 22.1
22:10 1015 29.97 844 24.92 1.9 35.4 59 -5.4 22.3
22:15 1015 29.97 844 24.92 2 35.5 59 -5.3 22.5
22:20 1015 29.97 844 24.92 2 35.5 59 -5.2 22.7
22:25 1015 29.97 844 24.92 1.9 35.3 60 -5.2 22.6
22:30 1015 29.97 844 24.92 1.9 35.4 60 -5.2 22.7
22:35 1015 29.97 844 24.92 1.9 35.5 62 -4.5 23.8
22:40 1015 29.97 844 24.92 0.9 33.6 68 -4.3 24.3
22:45 1015 29.97 845 24.95 0 32 71 -4.7 23.5
22:50 1015 29.97 845 24.95 0.1 32.1 69 -4.9 23.1
22:55 1016 30 845 24.95 0.3 32.5 70 -4.6 23.7
23:00 1016 30 845 24.95 0.2 32.3 69 -4.8 23.4
23:05 1016 30 845 24.95 0.1 32.2 70 -4.7 23.5
23:10 1016 30 845 24.95 0 32 71 -4.7 23.5
23:15 1016 30 846 24.98 -0.2 31.7 74 -4.3 24.3
23:20 1016 30 846 24.98 -0.9 30.4 79 -4 24.8
23:25 1016 30 846 24.98 -1.2 29.8 80 -4.2 24.5
23:30 1016 30 846 24.98 -1.4 29.4 81 -4.2 24.4
23:35 1016 30 846 24.98 -1.3 29.7 80 -4.3 24.3
23:40 1016 30 846 24.98 -1.1 30.1 78 -4.3 24.2
23:45 1016 30 845 24.95 -0.9 30.3 79 -4.2 24.4
23:50 1016 30 846 24.98 -0.8 30.7 77 -4.2 24.4
23:55 1017 30.03 846 24.98 -0.6 31 78 -4 24.8
24:00 1017 30.03 846 24.98 -0.7 30.8 79 -4 24.9